Sault Ste Marie, Michigan
Current Conditions -  °F | °C
As of 1:55 PM on Friday 31 Oct 2014 (Local Time) from KANJ Reporting Station
Overcast Overcast  
Wind Chill: 22°   Ceiling: 3400
Heat Index: 33°   Visibility: 10mi
Dew Point: 19°   Wind: 20mph
Humidity: 56%   Direction: 10°N
Pressure: 30.25"   Gusts: 26mph
Location:  46.48°N, 84.37°W
Report Text: KANJ 311755Z AUTO 01017G23KT 10SM BKN034 OVC042 01/M07 A3025 RMK AO2 SLP249 60000 T00061072 10017 21011 51012
Loading
Personal Weather Stations






























Interactive Weather Map
Tropical Storm Tracking
New forecast layout! Learn more

10-Day Weather Forecast

Advertisements
Track Severe Weather on mobile